sensor_id;sensor_type;location;lat;lon;timestamp;temperature;humidity
70300;HTU21D;57704;51.112;5.878;2022-12-04T00:01:11;4.15;71.77
70300;HTU21D;57704;51.112;5.878;2022-12-04T00:03:38;4.16;71.78
70300;HTU21D;57704;51.112;5.878;2022-12-04T00:06:16;4.14;71.92
70300;HTU21D;57704;51.112;5.878;2022-12-04T00:08:44;4.13;71.90
70300;HTU21D;57704;51.112;5.878;2022-12-04T00:11:14;4.14;71.97
70300;HTU21D;57704;51.112;5.878;2022-12-04T00:13:41;4.13;72.01
70300;HTU21D;57704;51.112;5.878;2022-12-04T00:16:11;4.14;72.01
70300;HTU21D;57704;51.112;5.878;2022-12-04T00:18:37;4.16;71.96
70300;HTU21D;57704;51.112;5.878;2022-12-04T00:21:05;4.13;71.99
70300;HTU21D;57704;51.112;5.878;2022-12-04T00:23:31;4.09;72.06
70300;HTU21D;57704;51.112;5.878;2022-12-04T00:26:04;4.07;72.21
70300;HTU21D;57704;51.112;5.878;2022-12-04T00:28:30;4.05;72.16
70300;HTU21D;57704;51.112;5.878;2022-12-04T00:30:57;4.02;72.34
70300;HTU21D;57704;51.112;5.878;2022-12-04T00:33:23;4.04;72.35
70300;HTU21D;57704;51.112;5.878;2022-12-04T00:36:00;4.05;72.30
70300;HTU21D;57704;51.112;5.878;2022-12-04T00:38:27;4.07;72.38
70300;HTU21D;57704;51.112;5.878;2022-12-04T00:40:54;4.10;72.28
70300;HTU21D;57704;51.112;5.878;2022-12-04T00:43:21;4.10;72.29
70300;HTU21D;57704;51.112;5.878;2022-12-04T00:45:48;4.17;72.26
70300;HTU21D;57704;51.112;5.878;2022-12-04T00:48:14;4.17;72.18
70300;HTU21D;57704;51.112;5.878;2022-12-04T00:50:40;4.16;72.07
70300;HTU21D;57704;51.112;5.878;2022-12-04T00:53:08;4.13;71.86
70300;HTU21D;57704;51.112;5.878;2022-12-04T00:55:40;4.06;72.13
70300;HTU21D;57704;51.112;5.878;2022-12-04T00:58:06;4.10;72.16
70300;HTU21D;57704;51.112;5.878;2022-12-04T01:00:34;4.08;72.12
70300;HTU21D;57704;51.112;5.878;2022-12-04T01:03:00;4.06;72.23
70300;HTU21D;57704;51.112;5.878;2022-12-04T01:05:26;4.09;72.30
70300;HTU21D;57704;51.112;5.878;2022-12-04T01:07:53;4.07;72.14
70300;HTU21D;57704;51.112;5.878;2022-12-04T01:10:19;4.02;72.19
70300;HTU21D;57704;51.112;5.878;2022-12-04T01:12:48;3.98;72.33
70300;HTU21D;57704;51.112;5.878;2022-12-04T01:15:15;3.98;72.43
70300;HTU21D;57704;51.112;5.878;2022-12-04T01:17:41;3.95;72.44
70300;HTU21D;57704;51.112;5.878;2022-12-04T01:20:08;3.97;72.56
70300;HTU21D;57704;51.112;5.878;2022-12-04T01:22:34;3.98;72.58
70300;HTU21D;57704;51.112;5.878;2022-12-04T01:25:00;4.06;72.38
70300;HTU21D;57704;51.112;5.878;2022-12-04T01:27:26;3.99;72.41
70300;HTU21D;57704;51.112;5.878;2022-12-04T01:29:52;4.02;72.48
70300;HTU21D;57704;51.112;5.878;2022-12-04T01:32:18;4.04;72.43
70300;HTU21D;57704;51.112;5.878;2022-12-04T01:34:44;4.04;72.38
70300;HTU21D;57704;51.112;5.878;2022-12-04T01:37:10;4.00;72.26
70300;HTU21D;57704;51.112;5.878;2022-12-04T01:39:36;4.00;72.52
70300;HTU21D;57704;51.112;5.878;2022-12-04T01:42:03;4.01;72.60
70300;HTU21D;57704;51.112;5.878;2022-12-04T01:44:31;4.02;72.51
70300;HTU21D;57704;51.112;5.878;2022-12-04T01:46:59;4.06;72.46
70300;HTU21D;57704;51.112;5.878;2022-12-04T01:49:30;4.05;72.42
70300;HTU21D;57704;51.112;5.878;2022-12-04T01:52:08;4.07;72.22
70300;HTU21D;57704;51.112;5.878;2022-12-04T01:54:41;4.02;72.41
70300;HTU21D;57704;51.112;5.878;2022-12-04T01:57:20;4.02;72.41
70300;HTU21D;57704;51.112;5.878;2022-12-04T02:00:04;4.00;72.54
70300;HTU21D;57704;51.112;5.878;2022-12-04T02:02:34;4.00;72.64
70300;HTU21D;57704;51.112;5.878;2022-12-04T02:05:05;4.04;72.34
70300;HTU21D;57704;51.112;5.878;2022-12-04T02:07:33;4.02;72.55
70300;HTU21D;57704;51.112;5.878;2022-12-04T02:09:59;4.04;72.24
70300;HTU21D;57704;51.112;5.878;2022-12-04T02:12:47;4.03;72.45
70300;HTU21D;57704;51.112;5.878;2022-12-04T02:15:26;3.95;72.35
70300;HTU21D;57704;51.112;5.878;2022-12-04T02:23:36;3.83;72.75
70300;HTU21D;57704;51.112;5.878;2022-12-04T02:31:37;3.91;72.61
70300;HTU21D;57704;51.112;5.878;2022-12-04T02:34:34;3.88;72.91
70300;HTU21D;57704;51.112;5.878;2022-12-04T02:37:13;3.94;72.79
70300;HTU21D;57704;51.112;5.878;2022-12-04T02:39:50;3.94;72.65
70300;HTU21D;57704;51.112;5.878;2022-12-04T02:45:07;3.91;72.33
70300;HTU21D;57704;51.112;5.878;2022-12-04T02:47:37;3.86;72.67
70300;HTU21D;57704;51.112;5.878;2022-12-04T02:50:13;3.84;72.69
70300;HTU21D;57704;51.112;5.878;2022-12-04T02:52:47;3.86;72.63
70300;HTU21D;57704;51.112;5.878;2022-12-04T02:55:28;3.80;72.79
70300;HTU21D;57704;51.112;5.878;2022-12-04T02:58:01;3.78;72.77
70300;HTU21D;57704;51.112;5.878;2022-12-04T03:00:31;3.82;72.77
70300;HTU21D;57704;51.112;5.878;2022-12-04T03:03:14;3.78;72.82
70300;HTU21D;57704;51.112;5.878;2022-12-04T03:05:51;3.80;72.70
70300;HTU21D;57704;51.112;5.878;2022-12-04T03:08:45;3.76;72.87
70300;HTU21D;57704;51.112;5.878;2022-12-04T03:11:10;3.78;72.92
70300;HTU21D;57704;51.112;5.878;2022-12-04T03:13:44;3.79;72.87
70300;HTU21D;57704;51.112;5.878;2022-12-04T03:16:24;3.78;72.85
70300;HTU21D;57704;51.112;5.878;2022-12-04T03:19:18;3.73;72.83
70300;HTU21D;57704;51.112;5.878;2022-12-04T03:21:55;3.72;72.93
70300;HTU21D;57704;51.112;5.878;2022-12-04T03:27:11;3.67;72.93
70300;HTU21D;57704;51.112;5.878;2022-12-04T03:32:12;3.64;73.12
70300;HTU21D;57704;51.112;5.878;2022-12-04T03:34:58;3.63;73.22
70300;HTU21D;57704;51.112;5.878;2022-12-04T03:45:57;3.72;73.19
70300;HTU21D;57704;51.112;5.878;2022-12-04T03:48:43;3.78;72.83
70300;HTU21D;57704;51.112;5.878;2022-12-04T03:51:18;3.71;73.04
70300;HTU21D;57704;51.112;5.878;2022-12-04T03:53:55;3.72;73.16
70300;HTU21D;57704;51.112;5.878;2022-12-04T03:56:31;3.75;72.98
70300;HTU21D;57704;51.112;5.878;2022-12-04T03:59:13;3.69;73.00
70300;HTU21D;57704;51.112;5.878;2022-12-04T04:01:46;3.65;73.14
70300;HTU21D;57704;51.112;5.878;2022-12-04T04:04:18;3.69;73.22
70300;HTU21D;57704;51.112;5.878;2022-12-04T04:06:54;3.71;73.27
70300;HTU21D;57704;51.112;5.878;2022-12-04T04:09:25;3.75;73.25
70300;HTU21D;57704;51.112;5.878;2022-12-04T04:12:05;3.77;73.14
70300;HTU21D;57704;51.112;5.878;2022-12-04T04:14:44;3.76;73.09
70300;HTU21D;57704;51.112;5.878;2022-12-04T04:17:33;3.72;73.02
70300;HTU21D;57704;51.112;5.878;2022-12-04T04:20:26;3.70;73.10
70300;HTU21D;57704;51.112;5.878;2022-12-04T04:23:16;3.68;73.22
70300;HTU21D;57704;51.112;5.878;2022-12-04T04:26:02;3.64;73.19
70300;HTU21D;57704;51.112;5.878;2022-12-04T04:28:35;3.60;73.28
70300;HTU21D;57704;51.112;5.878;2022-12-04T04:34:07;3.62;73.53
70300;HTU21D;57704;51.112;5.878;2022-12-04T04:42:41;3.63;73.15
70300;HTU21D;57704;51.112;5.878;2022-12-04T04:45:39;3.60;73.28
70300;HTU21D;57704;51.112;5.878;2022-12-04T04:48:19;3.57;73.52
70300;HTU21D;57704;51.112;5.878;2022-12-04T04:50:47;3.58;73.57
70300;HTU21D;57704;51.112;5.878;2022-12-04T04:53:25;3.60;73.48
70300;HTU21D;57704;51.112;5.878;2022-12-04T04:55:53;3.62;73.70
70300;HTU21D;57704;51.112;5.878;2022-12-04T04:58:20;3.61;73.48
70300;HTU21D;57704;51.112;5.878;2022-12-04T05:01:00;3.58;73.61
70300;HTU21D;57704;51.112;5.878;2022-12-04T05:03:28;3.60;73.56
70300;HTU21D;57704;51.112;5.878;2022-12-04T05:05:54;3.61;73.58
70300;HTU21D;57704;51.112;5.878;2022-12-04T05:08:21;3.57;73.61
70300;HTU21D;57704;51.112;5.878;2022-12-04T05:10:47;3.60;73.71
70300;HTU21D;57704;51.112;5.878;2022-12-04T05:13:15;3.62;73.47
70300;HTU21D;57704;51.112;5.878;2022-12-04T05:15:41;3.54;73.45
70300;HTU21D;57704;51.112;5.878;2022-12-04T05:18:08;3.54;73.57
70300;HTU21D;57704;51.112;5.878;2022-12-04T05:20:38;3.50;73.67
70300;HTU21D;57704;51.112;5.878;2022-12-04T05:23:04;3.53;73.83
70300;HTU21D;57704;51.112;5.878;2022-12-04T05:25:30;3.53;73.90
70300;HTU21D;57704;51.112;5.878;2022-12-04T05:27:56;3.56;73.80
70300;HTU21D;57704;51.112;5.878;2022-12-04T05:30:23;3.56;73.83
70300;HTU21D;57704;51.112;5.878;2022-12-04T05:32:49;3.56;73.77
70300;HTU21D;57704;51.112;5.878;2022-12-04T05:35:16;3.59;73.86
70300;HTU21D;57704;51.112;5.878;2022-12-04T05:37:42;3.64;73.73
70300;HTU21D;57704;51.112;5.878;2022-12-04T05:40:08;3.62;73.62
70300;HTU21D;57704;51.112;5.878;2022-12-04T05:42:34;3.58;73.73
70300;HTU21D;57704;51.112;5.878;2022-12-04T05:45:01;3.57;73.75
70300;HTU21D;57704;51.112;5.878;2022-12-04T05:47:27;3.64;73.76
70300;HTU21D;57704;51.112;5.878;2022-12-04T05:49:53;3.61;73.69
70300;HTU21D;57704;51.112;5.878;2022-12-04T05:52:19;3.59;73.68
70300;HTU21D;57704;51.112;5.878;2022-12-04T05:54:45;3.57;73.87
70300;HTU21D;57704;51.112;5.878;2022-12-04T05:57:11;3.60;73.75
70300;HTU21D;57704;51.112;5.878;2022-12-04T05:59:37;3.56;73.87
70300;HTU21D;57704;51.112;5.878;2022-12-04T06:02:03;3.58;73.62
70300;HTU21D;57704;51.112;5.878;2022-12-04T06:04:29;3.50;73.88
70300;HTU21D;57704;51.112;5.878;2022-12-04T06:06:55;3.49;74.03
70300;HTU21D;57704;51.112;5.878;2022-12-04T06:09:21;3.49;73.99
70300;HTU21D;57704;51.112;5.878;2022-12-04T06:11:47;3.52;74.06
70300;HTU21D;57704;51.112;5.878;2022-12-04T06:14:15;3.55;74.05
70300;HTU21D;57704;51.112;5.878;2022-12-04T06:16:44;3.55;73.83
70300;HTU21D;57704;51.112;5.878;2022-12-04T06:19:13;3.49;73.80
70300;HTU21D;57704;51.112;5.878;2022-12-04T06:21:43;3.42;73.60
70300;HTU21D;57704;51.112;5.878;2022-12-04T06:24:15;3.30;73.87
70300;HTU21D;57704;51.112;5.878;2022-12-04T06:26:41;3.19;74.15
70300;HTU21D;57704;51.112;5.878;2022-12-04T06:29:10;3.14;74.21
70300;HTU21D;57704;51.112;5.878;2022-12-04T06:31:36;3.05;74.32
70300;HTU21D;57704;51.112;5.878;2022-12-04T06:34:03;2.97;74.52
70300;HTU21D;57704;51.112;5.878;2022-12-04T06:36:29;2.89;74.88
70300;HTU21D;57704;51.112;5.878;2022-12-04T06:38:56;2.87;75.00
70300;HTU21D;57704;51.112;5.878;2022-12-04T06:41:24;2.84;75.18
70300;HTU21D;57704;51.112;5.878;2022-12-04T06:43:50;2.86;75.14
70300;HTU21D;57704;51.112;5.878;2022-12-04T06:46:22;2.85;75.36
70300;HTU21D;57704;51.112;5.878;2022-12-04T06:48:49;2.82;75.21
70300;HTU21D;57704;51.112;5.878;2022-12-04T06:51:23;2.79;75.45
70300;HTU21D;57704;51.112;5.878;2022-12-04T06:53:50;2.80;75.50
70300;HTU21D;57704;51.112;5.878;2022-12-04T06:56:22;2.78;75.57
70300;HTU21D;57704;51.112;5.878;2022-12-04T06:58:50;2.81;75.47
70300;HTU21D;57704;51.112;5.878;2022-12-04T07:01:20;2.83;75.50
70300;HTU21D;57704;51.112;5.878;2022-12-04T07:03:48;2.86;75.50
70300;HTU21D;57704;51.112;5.878;2022-12-04T07:06:24;2.86;75.36
70300;HTU21D;57704;51.112;5.878;2022-12-04T07:09:25;2.87;75.28
70300;HTU21D;57704;51.112;5.878;2022-12-04T07:11:45;2.89;75.22
70300;HTU21D;57704;51.112;5.878;2022-12-04T07:14:12;2.94;75.25
70300;HTU21D;57704;51.112;5.878;2022-12-04T07:16:39;2.96;75.09
70300;HTU21D;57704;51.112;5.878;2022-12-04T07:19:06;2.96;75.03
70300;HTU21D;57704;51.112;5.878;2022-12-04T07:21:32;2.97;75.20
70300;HTU21D;57704;51.112;5.878;2022-12-04T07:24:00;2.98;75.15
70300;HTU21D;57704;51.112;5.878;2022-12-04T07:26:28;3.00;75.12
70300;HTU21D;57704;51.112;5.878;2022-12-04T07:28:56;2.99;75.06
70300;HTU21D;57704;51.112;5.878;2022-12-04T07:31:23;2.98;75.22
70300;HTU21D;57704;51.112;5.878;2022-12-04T07:33:52;3.00;75.26
70300;HTU21D;57704;51.112;5.878;2022-12-04T07:36:20;3.06;75.22
70300;HTU21D;57704;51.112;5.878;2022-12-04T07:38:47;3.04;75.14
70300;HTU21D;57704;51.112;5.878;2022-12-04T07:41:14;3.08;75.12
70300;HTU21D;57704;51.112;5.878;2022-12-04T07:43:40;3.11;74.99
70300;HTU21D;57704;51.112;5.878;2022-12-04T07:46:12;3.10;75.12
70300;HTU21D;57704;51.112;5.878;2022-12-04T07:48:39;3.18;74.92
70300;HTU21D;57704;51.112;5.878;2022-12-04T07:51:12;3.15;74.85
70300;HTU21D;57704;51.112;5.878;2022-12-04T07:53:39;3.17;74.79
70300;HTU21D;57704;51.112;5.878;2022-12-04T07:56:06;3.23;74.57
70300;HTU21D;57704;51.112;5.878;2022-12-04T07:58:33;3.16;74.76
70300;HTU21D;57704;51.112;5.878;2022-12-04T08:01:12;3.20;74.68
70300;HTU21D;57704;51.112;5.878;2022-12-04T08:03:40;3.20;74.46
70300;HTU21D;57704;51.112;5.878;2022-12-04T08:06:07;3.23;74.44
70300;HTU21D;57704;51.112;5.878;2022-12-04T08:08:34;3.23;74.35
70300;HTU21D;57704;51.112;5.878;2022-12-04T08:11:08;3.21;74.35
70300;HTU21D;57704;51.112;5.878;2022-12-04T08:13:34;3.25;74.17
70300;HTU21D;57704;51.112;5.878;2022-12-04T08:16:02;3.23;74.13
70300;HTU21D;57704;51.112;5.878;2022-12-04T08:18:28;3.25;73.83
70300;HTU21D;57704;51.112;5.878;2022-12-04T08:21:02;3.23;73.93
70300;HTU21D;57704;51.112;5.878;2022-12-04T08:23:28;3.16;74.09
70300;HTU21D;57704;51.112;5.878;2022-12-04T08:25:57;3.19;74.03
70300;HTU21D;57704;51.112;5.878;2022-12-04T08:28:24;3.19;74.18
70300;HTU21D;57704;51.112;5.878;2022-12-04T08:30:50;3.25;74.13
70300;HTU21D;57704;51.112;5.878;2022-12-04T08:33:16;3.29;73.88
70300;HTU21D;57704;51.112;5.878;2022-12-04T08:35:42;3.27;74.00
70300;HTU21D;57704;51.112;5.878;2022-12-04T08:38:08;3.30;73.85
70300;HTU21D;57704;51.112;5.878;2022-12-04T08:40:34;3.38;73.71
70300;HTU21D;57704;51.112;5.878;2022-12-04T08:43:00;3.39;73.83
70300;HTU21D;57704;51.112;5.878;2022-12-04T08:45:26;3.44;73.74
70300;HTU21D;57704;51.112;5.878;2022-12-04T08:47:52;3.45;73.49
70300;HTU21D;57704;51.112;5.878;2022-12-04T08:50:18;3.47;73.23
70300;HTU21D;57704;51.112;5.878;2022-12-04T08:52:44;3.46;73.02
70300;HTU21D;57704;51.112;5.878;2022-12-04T08:55:10;3.41;73.22
70300;HTU21D;57704;51.112;5.878;2022-12-04T08:57:36;3.43;73.15
70300;HTU21D;57704;51.112;5.878;2022-12-04T09:00:03;3.42;73.09
70300;HTU21D;57704;51.112;5.878;2022-12-04T09:02:29;3.43;73.21
70300;HTU21D;57704;51.112;5.878;2022-12-04T09:04:56;3.44;72.96
70300;HTU21D;57704;51.112;5.878;2022-12-04T09:07:23;3.44;73.05
70300;HTU21D;57704;51.112;5.878;2022-12-04T09:09:49;3.48;73.19
70300;HTU21D;57704;51.112;5.878;2022-12-04T09:12:15;3.57;72.61
70300;HTU21D;57704;51.112;5.878;2022-12-04T09:14:42;3.58;72.25
70300;HTU21D;57704;51.112;5.878;2022-12-04T09:17:08;3.52;72.38
70300;HTU21D;57704;51.112;5.878;2022-12-04T09:19:35;3.53;72.67
70300;HTU21D;57704;51.112;5.878;2022-12-04T09:22:02;3.62;72.38
70300;HTU21D;57704;51.112;5.878;2022-12-04T09:24:29;3.63;72.38
70300;HTU21D;57704;51.112;5.878;2022-12-04T09:26:56;3.75;72.04
70300;HTU21D;57704;51.112;5.878;2022-12-04T09:29:23;3.72;71.82
70300;HTU21D;57704;51.112;5.878;2022-12-04T09:31:50;3.75;71.11
70300;HTU21D;57704;51.112;5.878;2022-12-04T09:34:17;3.75;70.90
70300;HTU21D;57704;51.112;5.878;2022-12-04T09:36:43;3.72;71.26
70300;HTU21D;57704;51.112;5.878;2022-12-04T09:39:10;3.77;70.83
70300;HTU21D;57704;51.112;5.878;2022-12-04T09:44:51;3.82;70.82
70300;HTU21D;57704;51.112;5.878;2022-12-04T09:47:31;3.88;70.73
70300;HTU21D;57704;51.112;5.878;2022-12-04T09:50:23;3.92;70.56
70300;HTU21D;57704;51.112;5.878;2022-12-04T09:52:54;3.98;70.45
70300;HTU21D;57704;51.112;5.878;2022-12-04T09:58:24;3.98;69.70
70300;HTU21D;57704;51.112;5.878;2022-12-04T10:00:55;3.98;69.94
70300;HTU21D;57704;51.112;5.878;2022-12-04T10:03:27;4.01;69.97
70300;HTU21D;57704;51.112;5.878;2022-12-04T10:08:31;3.99;69.62
70300;HTU21D;57704;51.112;5.878;2022-12-04T10:11:09;3.97;69.51
70300;HTU21D;57704;51.112;5.878;2022-12-04T10:24:56;4.04;69.50
70300;HTU21D;57704;51.112;5.878;2022-12-04T10:27:28;4.10;69.29
70300;HTU21D;57704;51.112;5.878;2022-12-04T10:30:01;4.13;68.93
70300;HTU21D;57704;51.112;5.878;2022-12-04T10:32:33;4.09;69.09
70300;HTU21D;57704;51.112;5.878;2022-12-04T10:35:22;4.04;69.13
70300;HTU21D;57704;51.112;5.878;2022-12-04T10:38:03;4.06;69.26
70300;HTU21D;57704;51.112;5.878;2022-12-04T10:40:45;4.07;69.13
70300;HTU21D;57704;51.112;5.878;2022-12-04T10:43:35;4.07;69.09
70300;HTU21D;57704;51.112;5.878;2022-12-04T10:46:04;4.06;69.13
70300;HTU21D;57704;51.112;5.878;2022-12-04T10:48:37;4.07;69.25
70300;HTU21D;57704;51.112;5.878;2022-12-04T10:51:05;4.09;69.23
70300;HTU21D;57704;51.112;5.878;2022-12-04T10:53:34;4.15;68.86
70300;HTU21D;57704;51.112;5.878;2022-12-04T10:56:10;4.07;68.66
70300;HTU21D;57704;51.112;5.878;2022-12-04T10:58:36;3.95;68.95
70300;HTU21D;57704;51.112;5.878;2022-12-04T11:01:06;3.93;69.19
70300;HTU21D;57704;51.112;5.878;2022-12-04T11:03:33;3.88;69.29
70300;HTU21D;57704;51.112;5.878;2022-12-04T11:06:03;3.92;69.13
70300;HTU21D;57704;51.112;5.878;2022-12-04T11:08:36;3.87;69.49
70300;HTU21D;57704;51.112;5.878;2022-12-04T11:11:07;3.89;69.69
70300;HTU21D;57704;51.112;5.878;2022-12-04T11:13:36;3.92;69.59
70300;HTU21D;57704;51.112;5.878;2022-12-04T11:16:03;3.92;69.41
70300;HTU21D;57704;51.112;5.878;2022-12-04T11:18:34;3.91;69.26
70300;HTU21D;57704;51.112;5.878;2022-12-04T11:21:12;3.86;69.52
70300;HTU21D;57704;51.112;5.878;2022-12-04T11:23:49;3.93;69.38
70300;HTU21D;57704;51.112;5.878;2022-12-04T11:26:34;3.85;69.64
70300;HTU21D;57704;51.112;5.878;2022-12-04T11:29:02;3.89;69.68
70300;HTU21D;57704;51.112;5.878;2022-12-04T11:31:31;3.93;69.47
70300;HTU21D;57704;51.112;5.878;2022-12-04T11:34:02;4.00;69.16
70300;HTU21D;57704;51.112;5.878;2022-12-04T11:36:37;3.98;69.31
70300;HTU21D;57704;51.112;5.878;2022-12-04T11:41:38;4.04;69.26
70300;HTU21D;57704;51.112;5.878;2022-12-04T11:44:30;4.00;69.18
70300;HTU21D;57704;51.112;5.878;2022-12-04T11:47:00;4.02;69.04
70300;HTU21D;57704;51.112;5.878;2022-12-04T11:49:29;4.01;68.80
70300;HTU21D;57704;51.112;5.878;2022-12-04T11:55:03;3.98;68.91
70300;HTU21D;57704;51.112;5.878;2022-12-04T11:57:56;3.94;68.97
70300;HTU21D;57704;51.112;5.878;2022-12-04T12:00:34;3.94;68.78
70300;HTU21D;57704;51.112;5.878;2022-12-04T12:03:25;3.94;69.00
70300;HTU21D;57704;51.112;5.878;2022-12-04T12:08:57;3.92;68.68
70300;HTU21D;57704;51.112;5.878;2022-12-04T12:11:40;3.91;68.87
70300;HTU21D;57704;51.112;5.878;2022-12-04T12:17:12;3.92;68.45
70300;HTU21D;57704;51.112;5.878;2022-12-04T12:20:06;3.88;68.62
70300;HTU21D;57704;51.112;5.878;2022-12-04T12:23:17;3.84;68.47
70300;HTU21D;57704;51.112;5.878;2022-12-04T12:33:56;3.68;68.62
70300;HTU21D;57704;51.112;5.878;2022-12-04T12:36:32;3.62;68.75
70300;HTU21D;57704;51.112;5.878;2022-12-04T12:39:25;3.59;69.01
70300;HTU21D;57704;51.112;5.878;2022-12-04T12:41:59;3.56;69.19
70300;HTU21D;57704;51.112;5.878;2022-12-04T12:45:04;3.54;69.36
70300;HTU21D;57704;51.112;5.878;2022-12-04T12:47:42;3.50;69.42
70300;HTU21D;57704;51.112;5.878;2022-12-04T12:50:22;3.50;69.27
70300;HTU21D;57704;51.112;5.878;2022-12-04T13:01:14;3.54;69.06
70300;HTU21D;57704;51.112;5.878;2022-12-04T13:04:11;3.54;69.23
70300;HTU21D;57704;51.112;5.878;2022-12-04T13:06:46;3.56;69.28
70300;HTU21D;57704;51.112;5.878;2022-12-04T13:09:30;3.57;69.48
70300;HTU21D;57704;51.112;5.878;2022-12-04T13:12:08;3.68;69.43
70300;HTU21D;57704;51.112;5.878;2022-12-04T13:14:36;3.75;69.07
70300;HTU21D;57704;51.112;5.878;2022-12-04T13:19:55;3.69;68.92
70300;HTU21D;57704;51.112;5.878;2022-12-04T13:41:06;3.74;69.33
70300;HTU21D;57704;51.112;5.878;2022-12-04T13:48:54;3.80;69.07
70300;HTU21D;57704;51.112;5.878;2022-12-04T13:57:09;3.79;69.38
70300;HTU21D;57704;51.112;5.878;2022-12-04T13:59:38;3.83;69.50
70300;HTU21D;57704;51.112;5.878;2022-12-04T14:02:30;3.87;69.58
70300;HTU21D;57704;51.112;5.878;2022-12-04T14:12:47;4.05;69.55
70300;HTU21D;57704;51.112;5.878;2022-12-04T14:15:22;4.08;69.17
70300;HTU21D;57704;51.112;5.878;2022-12-04T14:20:34;4.07;68.84
70300;HTU21D;57704;51.112;5.878;2022-12-04T14:23:40;3.98;69.19
70300;HTU21D;57704;51.112;5.878;2022-12-04T14:26:25;4.01;69.32
70300;HTU21D;57704;51.112;5.878;2022-12-04T14:29:06;4.06;69.23
70300;HTU21D;57704;51.112;5.878;2022-12-04T14:31:48;4.07;68.91
70300;HTU21D;57704;51.112;5.878;2022-12-04T14:34:21;4.00;69.00
70300;HTU21D;57704;51.112;5.878;2022-12-04T14:36:51;3.95;69.04
70300;HTU21D;57704;51.112;5.878;2022-12-04T14:42:26;3.88;68.94
70300;HTU21D;57704;51.112;5.878;2022-12-04T14:44:58;3.82;69.26
70300;HTU21D;57704;51.112;5.878;2022-12-04T14:53:30;3.80;69.31
70300;HTU21D;57704;51.112;5.878;2022-12-04T14:56:21;3.82;69.35
70300;HTU21D;57704;51.112;5.878;2022-12-04T14:58:49;3.83;69.42
70300;HTU21D;57704;51.112;5.878;2022-12-04T15:01:29;3.83;69.42
70300;HTU21D;57704;51.112;5.878;2022-12-04T15:06:48;3.83;69.64
70300;HTU21D;57704;51.112;5.878;2022-12-04T15:09:21;3.88;69.23
70300;HTU21D;57704;51.112;5.878;2022-12-04T15:12:23;3.86;69.37
70300;HTU21D;57704;51.112;5.878;2022-12-04T15:15:21;3.92;69.40
70300;HTU21D;57704;51.112;5.878;2022-12-04T15:18:03;3.93;69.39
70300;HTU21D;57704;51.112;5.878;2022-12-04T15:20:36;4.01;69.22
70300;HTU21D;57704;51.112;5.878;2022-12-04T15:23:03;3.99;69.20
70300;HTU21D;57704;51.112;5.878;2022-12-04T15:25:44;3.99;69.16
70300;HTU21D;57704;51.112;5.878;2022-12-04T15:30:55;4.00;69.32
70300;HTU21D;57704;51.112;5.878;2022-12-04T15:33:28;4.03;69.19
70300;HTU21D;57704;51.112;5.878;2022-12-04T15:36:17;4.03;69.06
70300;HTU21D;57704;51.112;5.878;2022-12-04T15:39:25;3.95;69.32
70300;HTU21D;57704;51.112;5.878;2022-12-04T15:42:47;3.99;69.46
70300;HTU21D;57704;51.112;5.878;2022-12-04T15:55:49;3.97;69.29
70300;HTU21D;57704;51.112;5.878;2022-12-04T16:01:10;3.89;69.68
70300;HTU21D;57704;51.112;5.878;2022-12-04T16:06:22;3.89;69.73
70300;HTU21D;57704;51.112;5.878;2022-12-04T16:09:17;3.94;69.83
70300;HTU21D;57704;51.112;5.878;2022-12-04T16:12:14;3.97;69.82
70300;HTU21D;57704;51.112;5.878;2022-12-04T16:14:40;4.01;69.84
70300;HTU21D;57704;51.112;5.878;2022-12-04T16:17:09;4.08;69.96
70300;HTU21D;57704;51.112;5.878;2022-12-04T16:19:38;4.16;69.83
70300;HTU21D;57704;51.112;5.878;2022-12-04T16:22:24;4.20;69.81
70300;HTU21D;57704;51.112;5.878;2022-12-04T16:24:52;4.27;69.53
70300;HTU21D;57704;51.112;5.878;2022-12-04T16:27:20;4.26;69.46
70300;HTU21D;57704;51.112;5.878;2022-12-04T16:29:51;4.28;69.44
70300;HTU21D;57704;51.112;5.878;2022-12-04T16:32:20;4.29;69.51
70300;HTU21D;57704;51.112;5.878;2022-12-04T16:34:47;4.30;69.52
70300;HTU21D;57704;51.112;5.878;2022-12-04T16:37:18;4.33;69.59
70300;HTU21D;57704;51.112;5.878;2022-12-04T16:39:45;4.35;69.58
70300;HTU21D;57704;51.112;5.878;2022-12-04T16:42:29;4.39;69.59
70300;HTU21D;57704;51.112;5.878;2022-12-04T16:44:55;4.43;69.35
70300;HTU21D;57704;51.112;5.878;2022-12-04T16:47:22;4.44;69.38
70300;HTU21D;57704;51.112;5.878;2022-12-04T16:49:50;4.46;69.45
70300;HTU21D;57704;51.112;5.878;2022-12-04T16:52:17;4.48;69.30
70300;HTU21D;57704;51.112;5.878;2022-12-04T16:54:44;4.46;69.25
70300;HTU21D;57704;51.112;5.878;2022-12-04T16:57:10;4.46;69.36
70300;HTU21D;57704;51.112;5.878;2022-12-04T16:59:37;4.48;69.33
70300;HTU21D;57704;51.112;5.878;2022-12-04T17:02:11;4.48;69.36
70300;HTU21D;57704;51.112;5.878;2022-12-04T17:04:38;4.47;69.36
70300;HTU21D;57704;51.112;5.878;2022-12-04T17:07:04;4.52;69.28
70300;HTU21D;57704;51.112;5.878;2022-12-04T17:09:30;4.49;69.48
70300;HTU21D;57704;51.112;5.878;2022-12-04T17:11:56;4.50;69.44
70300;HTU21D;57704;51.112;5.878;2022-12-04T17:14:22;4.48;69.55
70300;HTU21D;57704;51.112;5.878;2022-12-04T17:16:48;4.50;69.55
70300;HTU21D;57704;51.112;5.878;2022-12-04T17:19:14;4.51;69.61
70300;HTU21D;57704;51.112;5.878;2022-12-04T17:21:40;4.56;69.58
70300;HTU21D;57704;51.112;5.878;2022-12-04T17:24:06;4.53;69.61
70300;HTU21D;57704;51.112;5.878;2022-12-04T17:26:33;4.52;69.73
70300;HTU21D;57704;51.112;5.878;2022-12-04T17:28:59;4.59;69.83
70300;HTU21D;57704;51.112;5.878;2022-12-04T17:31:26;4.59;69.70
70300;HTU21D;57704;51.112;5.878;2022-12-04T17:33:52;4.66;69.65
70300;HTU21D;57704;51.112;5.878;2022-12-04T17:36:24;4.69;69.58
70300;HTU21D;57704;51.112;5.878;2022-12-04T17:38:55;4.71;69.56
70300;HTU21D;57704;51.112;5.878;2022-12-04T17:41:21;4.71;69.45
70300;HTU21D;57704;51.112;5.878;2022-12-04T17:43:48;4.68;69.61
70300;HTU21D;57704;51.112;5.878;2022-12-04T17:46:20;4.69;69.60
70300;HTU21D;57704;51.112;5.878;2022-12-04T17:48:47;4.72;69.59
70300;HTU21D;57704;51.112;5.878;2022-12-04T17:51:16;4.72;69.62
70300;HTU21D;57704;51.112;5.878;2022-12-04T17:53:43;4.75;69.68
70300;HTU21D;57704;51.112;5.878;2022-12-04T17:56:14;4.76;69.65
70300;HTU21D;57704;51.112;5.878;2022-12-04T17:58:43;4.81;69.73
70300;HTU21D;57704;51.112;5.878;2022-12-04T18:01:16;4.84;69.65
70300;HTU21D;57704;51.112;5.878;2022-12-04T18:03:42;4.89;69.53
70300;HTU21D;57704;51.112;5.878;2022-12-04T18:06:14;4.86;69.39
70300;HTU21D;57704;51.112;5.878;2022-12-04T18:08:41;4.84;69.60
70300;HTU21D;57704;51.112;5.878;2022-12-04T18:11:07;4.83;69.71
70300;HTU21D;57704;51.112;5.878;2022-12-04T18:13:33;4.86;69.75
70300;HTU21D;57704;51.112;5.878;2022-12-04T18:16:09;4.87;69.87
70300;HTU21D;57704;51.112;5.878;2022-12-04T18:18:36;4.88;69.89
70300;HTU21D;57704;51.112;5.878;2022-12-04T18:21:08;4.87;69.89
70300;HTU21D;57704;51.112;5.878;2022-12-04T18:23:40;4.84;70.10
70300;HTU21D;57704;51.112;5.878;2022-12-04T18:26:16;4.87;70.17
70300;HTU21D;57704;51.112;5.878;2022-12-04T18:28:43;4.93;70.26
70300;HTU21D;57704;51.112;5.878;2022-12-04T18:31:10;4.97;70.26
70300;HTU21D;57704;51.112;5.878;2022-12-04T18:33:38;5.01;70.26
70300;HTU21D;57704;51.112;5.878;2022-12-04T18:36:05;5.03;70.15
70300;HTU21D;57704;51.112;5.878;2022-12-04T18:38:34;5.03;70.30